»·PEaware :: AUZ081 KSNA-KLAX

AUZ081 :: KSNA-KLAX

FLIGHT INFORMATION

Flight Status: Arrived
Operator:
Australian Airlines
More flights by this operator :: More flights under this callsign
Pilot: Kim E. (65)
Aircraft: AÉROSPATIALE ATR-72
(AT72)
More flights by this aircraft type
Origin: KSNA John Wayne-Orange Co
United States
Destination: KLAX Los Angeles Intl
United States
More flights between these airports :: More routes between these airports
Route: +MUSEL6 SLI
File this flight plan on PilotEdge
Remarks: / V /
Altitude:
(Current/Filed)
14,000ft
Speed:
(Current/Filed)
250kts
Departed: 15-May-13 12:16 PM
Arrived: 15-May-13 12:38 PM
Distance/Time
Traveled:
31nm/0:22
Distance/Time
To Go:
Arrived

Flight Plot

Page will automatically refresh every two minutes.

Flight plan parsing failed; only flown route is shown


Map Options




Map Legend


Flown Route
Filed Route
Departure Airport
Arrival Airport
Navaid (VOR, NDB)
Fix

Horizontal Profiles

Position Reports

Time Latitude Longitude Heading Altitude Ground
Speed
15-May-13 11:18 33.681151 -117.860869 116 62ft 0kts
15-May-13 11:19 33.681151 -117.860869 116 62ft 0kts
15-May-13 11:20 33.681151 -117.860869 116 62ft 0kts
15-May-13 11:21 33.681151 -117.860869 116 62ft 0kts
15-May-13 11:23 33.681151 -117.860869 116 62ft 0kts
15-May-13 11:24 33.681151 -117.860869 116 62ft 0kts
15-May-13 11:25 33.681151 -117.860869 116 62ft 0kts
15-May-13 11:26 33.681151 -117.860869 116 62ft 0kts
15-May-13 11:27 33.681151 -117.860869 116 62ft 0kts
15-May-13 11:28 33.681151 -117.860869 116 62ft 0kts
15-May-13 11:29 33.681151 -117.860869 116 62ft 0kts
15-May-13 11:30 33.681151 -117.860869 116 62ft 0kts
15-May-13 11:31 33.681151 -117.860869 116 62ft 0kts
15-May-13 11:32 33.681151 -117.860869 116 62ft 0kts
15-May-13 11:33 33.681151 -117.860869 116 62ft 0kts
15-May-13 11:34 33.681151 -117.860869 116 62ft 0kts
15-May-13 11:35 33.681151 -117.860869 116 62ft 0kts
15-May-13 11:36 33.681151 -117.860869 116 62ft 0kts
15-May-13 11:37 33.681151 -117.860869 116 62ft 0kts
15-May-13 11:38 33.681151 -117.860869 116 62ft 0kts
15-May-13 11:39 33.681151 -117.860869 116 62ft 0kts
15-May-13 11:40 33.681151 -117.860869 116 62ft 0kts
15-May-13 11:41 33.681151 -117.860869 116 62ft 0kts
15-May-13 11:42 33.681151 -117.860869 116 62ft 0kts
15-May-13 11:43 33.681151 -117.860869 116 62ft 0kts
15-May-13 11:44 33.681151 -117.860869 116 62ft 0kts
15-May-13 11:45 33.681151 -117.860869 116 62ft 0kts
15-May-13 11:46 33.681151 -117.860869 116 62ft 0kts
15-May-13 11:47 33.681151 -117.860869 116 62ft 0kts
15-May-13 11:48 33.681151 -117.860869 116 62ft 0kts
15-May-13 11:49 33.681151 -117.860869 116 62ft 0kts
15-May-13 11:50 33.681151 -117.860869 116 62ft 0kts
15-May-13 11:51 33.681151 -117.860869 116 62ft 0kts
15-May-13 11:52 33.681151 -117.860869 116 62ft 0kts
15-May-13 11:53 33.681151 -117.860869 116 62ft 0kts
15-May-13 11:54 33.681151 -117.860869 116 62ft 0kts
15-May-13 11:55 33.681151 -117.860869 116 62ft 0kts
15-May-13 11:56 33.681151 -117.860869 116 62ft 0kts
15-May-13 11:57 33.681151 -117.860869 116 62ft 0kts
15-May-13 11:58 33.681151 -117.860869 116 62ft 0kts
15-May-13 11:59 33.681150 -117.860868 116 62ft 0kts
15-May-13 12:00 33.681150 -117.860868 116 62ft 0kts
15-May-13 12:01 33.681150 -117.860868 116 62ft 0kts
15-May-13 12:02 33.681150 -117.860868 116 62ft 0kts
15-May-13 12:03 33.681150 -117.860868 116 62ft 0kts
15-May-13 12:04 33.681150 -117.860868 116 62ft 0kts
15-May-13 12:05 33.681150 -117.860868 116 62ft 0kts
15-May-13 12:06 33.681150 -117.860868 116 62ft 0kts
15-May-13 12:07 33.681218 -117.861033 116 62ft 2kts
15-May-13 12:08 33.681261 -117.861137 116 62ft 0kts
15-May-13 12:09 33.681261 -117.861137 116 62ft 0kts
15-May-13 12:10 33.681261 -117.861137 116 62ft 0kts
15-May-13 12:11 33.681093 -117.861138 231 62ft 5kts
15-May-13 12:12 33.680742 -117.861961 242 62ft 0kts
15-May-13 12:13 33.680558 -117.862892 294 62ft 0kts
15-May-13 12:14 33.680560 -117.862898 294 62ft 0kts
15-May-13 12:15 33.680562 -117.862904 294 62ft 0kts
15-May-13 12:16 33.681298 -117.865349 203 62ft 0kts
15-May-13 12:17 33.667849 -117.873246 198 360ft 114kts
15-May-13 12:18 33.631393 -117.878788 163 1957ft 161kts
15-May-13 12:19 33.587169 -117.859975 162 4461ft 171kts
15-May-13 12:20 33.535797 -117.865365 230 5145ft 237kts
15-May-13 12:21 33.553184 -117.930254 337 5661ft 255kts
15-May-13 12:22 33.601338 -117.984143 293 6883ft 257kts
15-May-13 12:23 33.630069 -118.065472 291 7108ft 248kts
15-May-13 12:24 33.654118 -118.134163 292 7121ft 203kts
15-May-13 12:25 33.697222 -118.152956 13 7136ft 200kts
15-May-13 12:26 33.751128 -118.123396 33 7121ft 227kts
15-May-13 12:27 33.799273 -118.081758 31 7109ft 234kts
15-May-13 12:28 33.852693 -118.036097 31 6647ft 225kts
15-May-13 12:29 33.900416 -118.031074 322 5628ft 174kts
15-May-13 12:30 33.937865 -118.062658 322 4642ft 140kts
15-May-13 12:31 33.952839 -118.095500 282 4112ft 105kts
15-May-13 12:32 33.954214 -118.130950 257 4241ft 130kts
15-May-13 12:33 33.948068 -118.173925 264 4735ft 131kts
15-May-13 12:34 33.947138 -118.216532 270 3810ft 128kts
15-May-13 12:35 33.947370 -118.263647 269 1978ft 134kts
15-May-13 12:36 33.946052 -118.306090 263 1159ft 131kts
15-May-13 12:37 33.941951 -118.345135 260 605ft 111kts
15-May-13 12:38 33.938085 -118.380130 259 189ft 96kts
15-May-13 12:39 33.936261 -118.398308 280 132ft 27kts

Navigation Log

Ident Type
Flight plan parsing failed, navigation log unavailable